Time;durP1;ratioP1;P1;durP2;ratioP2;P2;SDS_P1;SDS_P2;PMS_P1;PMS_P2;Temp;Humidity;BMP_temperature;BMP_pressure;BME280_temperature;BME280_humidity;BME280_pressure;Samples;Min_cycle;Max_cycle;Signal;HPM_P1;HPM_P2
2022/01/18 00:08:44;;;;;;;6.93;1.77;;;;;;;14.92;63.55;103220.88;20916053;28;20095;-54
2022/01/18 00:18:49;;;;;;;7.13;2.40;;;;;;;15.35;63.91;103305.97;20933925;28;20036;-53
2022/01/18 00:28:56;;;;;;;6.78;1.85;;;;;;;15.42;64.26;103333.47;20992444;28;20098;-56
2022/01/18 00:38:58;;;;;;;8.35;2.33;;;;;;;14.93;64.06;103244.06;21009286;28;20083;-54
2022/01/18 00:49:01;;;;;;;7.75;2.17;;;;;;;14.93;64.19;103256.63;20994323;28;20052;-54
2022/01/18 00:59:03;;;;;;;5.90;1.85;;;;;;;15.44;63.84;103351.25;20986014;28;20040;-52
2022/01/18 01:09:06;;;;;;;5.63;1.92;;;;;;;15.45;64.51;103354.81;20922137;28;20114;-54
2022/01/18 01:19:26;;;;;;;5.88;1.60;;;;;;;15.45;64.53;103342.25;20990195;28;20057;-52
2022/01/18 01:50:17;;;;;;;8.25;2.08;;;;;;;14.97;64.22;103276.16;20932005;28;20056;-54
2022/01/18 02:00:20;;;;;;;9.80;2.50;;;;;;;15.49;64.41;103376.13;20986315;28;20127;-54
2022/01/18 02:10:22;;;;;;;5.25;1.88;;;;;;;15.43;64.40;103354.88;20957654;28;20115;-55
2022/01/18 02:30:45;;;;;;;8.20;2.20;;;;;;;14.94;64.32;103261.91;20904589;28;20049;-55
2022/01/18 02:40:47;;;;;;;8.13;2.05;;;;;;;15.44;64.19;103334.28;20904021;28;20095;-56
2022/01/18 02:50:50;;;;;;;7.45;1.92;;;;;;;15.02;64.02;103268.78;20959486;28;20482;-54
2022/01/18 03:11:17;;;;;;;9.37;2.30;;;;;;;15.45;64.38;103341.41;20908258;28;20053;-56
2022/01/18 03:21:19;;;;;;;6.70;1.98;;;;;;;15.05;64.54;103284.81;20918494;28;20056;-55
2022/01/18 03:31:20;;;;;;;7.93;1.73;;;;;;;15.49;64.70;103376.13;20975933;28;20052;-56
2022/01/18 03:41:22;;;;;;;6.82;2.17;;;;;;;15.48;64.45;103382.44;20998025;28;20047;-55
2022/01/18 03:51:24;;;;;;;7.88;2.08;;;;;;;15.48;64.68;103393.19;20938745;28;20082;-55
2022/01/18 04:01:26;;;;;;;8.30;2.00;;;;;;;15.49;64.71;103397.63;20972503;28;20087;-55
2022/01/18 04:11:28;;;;;;;5.72;1.65;;;;;;;15.49;64.74;103421.78;20996772;28;20084;-56
2022/01/18 04:31:50;;;;;;;4.60;1.40;;;;;;;15.50;64.98;103395.78;20927262;28;20461;-54
2022/01/18 04:41:52;;;;;;;5.38;1.92;;;;;;;15.49;64.62;103397.63;20913424;28;20059;-56
2022/01/18 04:51:54;;;;;;;8.73;1.88;;;;;;;14.99;64.81;103307.34;20982298;28;20052;-55
2022/01/18 05:01:56;;;;;;;5.93;1.95;;;;;;;14.99;64.64;103323.47;20991817;28;20084;-55
2022/01/18 05:12:07;;;;;;;5.60;1.58;;;;;;;15.40;65.16;103391.72;20918700;28;20400;-56
2022/01/18 05:32:30;;;;;;;5.57;1.75;;;;;;;15.45;64.73;103395.94;20908525;28;20143;-57
2022/01/18 05:42:32;;;;;;;4.60;1.50;;;;;;;15.49;64.69;103418.19;20985051;28;20048;-57
2022/01/18 05:52:34;;;;;;;4.28;1.30;;;;;;;15.31;65.18;103387.56;20988035;28;20055;-57
2022/01/18 06:02:43;;;;;;;6.40;1.73;;;;;;;14.93;64.96;103345.16;20907414;28;20136;-56
2022/01/18 06:12:45;;;;;;;4.78;1.13;;;;;;;14.96;64.90;103354.88;20907683;28;20130;-54
2022/01/18 06:22:51;;;;;;;6.53;1.45;;;;;;;15.31;64.97;103425.13;20987513;28;20102;-56
2022/01/18 06:32:53;;;;;;;4.35;1.10;;;;;;;15.55;64.01;103423.31;20981304;28;20057;-55
2022/01/18 06:42:54;;;;;;;4.70;1.70;;;;;;;15.85;62.93;103424.88;20905187;28;20052;-53
2022/01/18 06:52:56;;;;;;;3.60;1.20;;;;;;;16.31;61.45;103424.84;20911009;28;20493;-57
2022/01/18 07:02:58;;;;;;;4.70;1.42;;;;;;;16.57;60.52;103413.00;20985953;28;20049;-55
2022/01/18 07:13:01;;;;;;;4.35;1.10;;;;;;;16.31;59.99;103382.69;20977409;28;20467;-56
2022/01/18 07:23:03;;;;;;;4.00;1.20;;;;;;;16.56;61.91;103427.38;20904150;28;20041;-56
2022/01/18 07:33:06;;;;;;;4.70;1.20;;;;;;;16.58;62.77;103430.88;20913140;28;20069;-55
2022/01/18 07:43:09;;;;;;;3.58;1.50;;;;;;;16.34;64.03;103382.56;20995354;28;20058;-56
2022/01/18 07:53:11;;;;;;;5.85;1.40;;;;;;;16.70;62.94;103447.41;20983017;28;20086;-56
2022/01/18 08:03:13;;;;;;;3.03;0.95;;;;;;;16.67;62.86;103452.00;20917332;28;20479;-56
2022/01/18 08:13:15;;;;;;;4.13;1.27;;;;;;;16.65;62.81;103445.81;20915808;28;20041;-57
2022/01/18 08:23:17;;;;;;;7.10;1.38;;;;;;;16.63;62.92;103463.81;20914907;28;20103;-57
2022/01/18 08:33:19;;;;;;;4.90;1.17;;;;;;;16.52;62.35;103488.47;20914114;28;20127;-57
2022/01/18 08:43:21;;;;;;;4.55;1.88;;;;;;;16.34;62.26;103432.78;20913725;28;20140;-57
2022/01/18 08:53:23;;;;;;;5.55;1.27;;;;;;;16.27;62.66;103410.66;20993683;28;20054;-57
2022/01/18 09:03:25;;;;;;;5.30;1.30;;;;;;;16.65;62.55;103478.09;20992885;28;20047;-55
2022/01/18 09:13:28;;;;;;;6.47;1.67;;;;;;;16.27;60.09;103407.09;20990990;28;20051;-56
2022/01/18 09:23:31;;;;;;;8.40;1.77;;;;;;;16.28;60.12;103419.59;20991185;28;20620;-57
2022/01/18 09:33:33;;;;;;;14.77;1.90;;;;;;;16.23;60.63;103420.69;20990098;28;20044;-58
2022/01/18 09:43:37;;;;;;;22.10;5.07;;;;;;;16.31;60.85;103428.41;20990822;28;20036;-57
2022/01/18 09:53:39;;;;;;;55.00;11.68;;;;;;;16.74;62.10;103508.22;20991169;28;20036;-54
2022/01/18 10:03:41;;;;;;;26.25;6.05;;;;;;;16.74;60.89;103501.03;20988030;28;20072;-57
2022/01/18 10:13:49;;;;;;;23.60;6.93;;;;;;;16.73;61.62;103517.22;20987961;28;20045;-57
2022/01/18 10:23:54;;;;;;;21.15;7.18;;;;;;;16.60;61.34;103512.38;20987990;28;20084;-57
2022/01/18 10:34:27;;;;;;;25.40;7.05;;;;;;;16.60;61.45;103501.59;20969443;28;20068;-55
2022/01/18 10:44:34;;;;;;;22.13;7.20;;;;;;;16.23;61.38;103438.59;20986332;28;20539;-56
2022/01/18 10:54:37;;;;;;;19.75;5.88;;;;;;;16.60;61.14;103504.31;20969164;28;20053;-57
2022/01/18 11:04:51;;;;;;;18.25;5.10;;;;;;;16.30;61.18;103423.97;20985243;28;20049;-57
2022/01/18 11:15:07;;;;;;;15.32;4.28;;;;;;;16.70;61.16;103477.00;21004010;22;20070;-56
2022/01/18 11:25:09;;;;;;;15.85;5.38;;;;;;;16.66;61.05;103468.22;20985405;28;20044;-54
2022/01/18 11:35:14;;;;;;;10.80;3.80;;;;;;;16.16;61.74;103369.91;20966138;28;20057;-50
2022/01/18 11:45:25;;;;;;;12.23;4.20;;;;;;;16.70;60.62;103463.56;20999788;28;20052;-53
2022/01/18 11:55:39;;;;;;;14.02;3.90;;;;;;;16.46;61.38;103443.03;20998973;28;20051;-55
2022/01/18 12:05:44;;;;;;;9.55;3.92;;;;;;;16.11;60.87;103394.28;20999161;28;20410;-57
2022/01/18 12:15:56;;;;;;;8.45;3.17;;;;;;;16.65;61.79;103479.91;20979758;28;20517;-54
2022/01/18 12:26:27;;;;;;;9.07;3.50;;;;;;;16.31;61.70;103411.41;20996361;28;20067;-55
2022/01/18 12:36:30;;;;;;;7.80;3.15;;;;;;;16.67;61.26;103468.13;20980697;28;20449;-55
2022/01/18 12:46:31;;;;;;;7.47;2.65;;;;;;;16.67;61.52;103462.75;20977071;28;20052;-56
2022/01/18 12:56:33;;;;;;;7.82;2.83;;;;;;;16.71;61.78;103446.47;20993183;28;20399;-56
2022/01/18 13:06:37;;;;;;;10.55;2.75;;;;;;;16.65;61.58;103436.88;20993162;28;20050;-55
2022/01/18 13:26:49;;;;;;;8.13;2.57;;;;;;;16.63;62.27;103423.47;20973670;28;20098;-56
2022/01/18 13:36:55;;;;;;;7.03;2.40;;;;;;;16.21;62.34;103351.78;20989846;28;20052;-56
2022/01/18 13:47:18;;;;;;;7.95;2.47;;;;;;;16.60;62.38;103406.63;20990227;28;20179;-56
2022/01/18 13:57:22;;;;;;;5.65;2.40;;;;;;;16.42;62.54;103359.88;20963683;28;20654;-53
2022/01/18 14:07:26;;;;;;;5.95;1.95;;;;;;;16.47;62.80;103356.03;20971002;28;20044;-55
2022/01/18 14:17:28;;;;;;;4.65;2.20;;;;;;;15.99;62.69;103264.03;20988010;28;20109;-55
2022/01/18 14:27:34;;;;;;;7.13;2.22;;;;;;;16.58;62.85;103350.19;20969900;28;20442;-55
2022/01/18 14:37:39;;;;;;;6.15;2.15;;;;;;;16.17;63.00;103270.44;20969510;28;20399;-55
2022/01/18 14:47:42;;;;;;;5.50;2.33;;;;;;;16.16;63.12;103279.44;20994398;28;20712;-55
2022/01/18 14:57:44;;;;;;;4.10;2.00;;;;;;;16.57;63.27;103340.38;21003270;28;20052;-55
2022/01/18 15:07:47;;;;;;;4.28;1.63;;;;;;;16.50;63.61;103312.88;21002171;28;20086;-55
2022/01/18 15:17:50;;;;;;;6.32;1.70;;;;;;;16.63;64.64;103323.97;21001662;28;20433;-57
2022/01/18 15:27:52;;;;;;;6.93;2.17;;;;;;;16.68;63.61;103323.78;21001124;28;20040;-55
2022/01/18 15:37:54;;;;;;;6.68;1.90;;;;;;;16.66;63.55;103325.66;20999993;28;20052;-55
2022/01/18 15:47:56;;;;;;;3.40;2.00;;;;;;;16.65;63.41;103315.84;20999485;28;20049;-57
2022/01/18 15:58:01;;;;;;;6.72;2.45;;;;;;;16.57;63.76;103305.41;20979995;28;20044;-56
2022/01/18 16:08:06;;;;;;;5.75;2.80;;;;;;;16.58;64.11;103315.22;20997955;28;20037;-55
2022/01/18 16:18:08;;;;;;;7.15;2.80;;;;;;;16.58;63.44;103300.94;20996822;28;20048;-56
2022/01/18 16:28:11;;;;;;;7.85;2.88;;;;;;;16.58;63.83;103272.22;20996285;28;20444;-55
2022/01/18 16:38:13;;;;;;;8.13;3.90;;;;;;;16.49;63.49;103264.56;20977636;28;20055;-55
2022/01/18 16:48:15;;;;;;;7.20;4.32;;;;;;;16.56;63.68;103287.53;20995065;28;20048;-54
2022/01/18 16:58:18;;;;;;;7.72;4.20;;;;;;;16.42;63.30;103252.34;20993701;28;20044;-56
2022/01/18 17:08:20;;;;;;;8.45;4.32;;;;;;;16.09;63.31;103203.56;20992716;28;20051;-56
2022/01/18 17:18:22;;;;;;;7.97;4.60;;;;;;;16.55;62.98;103272.34;20991998;28;20060;-57
2022/01/18 17:28:23;;;;;;;7.03;4.80;;;;;;;16.47;62.72;103271.81;20991916;28;20045;-56
2022/01/18 17:38:25;;;;;;;7.47;4.82;;;;;;;16.58;62.42;103277.59;20956384;28;20094;-55
2022/01/18 17:48:27;;;;;;;7.50;4.43;;;;;;;16.08;62.88;103171.38;20989802;28;20075;-57
2022/01/18 17:58:29;;;;;;;7.13;4.40;;;;;;;16.54;62.41;103251.78;20972727;28;20398;-57
2022/01/18 18:08:31;;;;;;;7.03;4.97;;;;;;;16.51;62.18;103236.66;20988780;28;20056;-55
2022/01/18 18:18:33;;;;;;;6.38;3.85;;;;;;;16.42;62.82;103231.69;20987385;28;20052;-56
2022/01/18 18:28:37;;;;;;;7.93;4.80;;;;;;;15.86;62.83;103136.50;20968570;28;20048;-55
2022/01/18 18:38:43;;;;;;;7.77;3.80;;;;;;;16.31;62.89;103216.03;20969686;28;20093;-56
2022/01/18 18:48:46;;;;;;;7.15;3.85;;;;;;;16.28;62.84;103240.38;20986875;28;20310;-56
2022/01/18 19:09:08;;;;;;;7.57;4.32;;;;;;;16.27;62.98;103257.44;20985734;28;20151;-56
2022/01/18 19:19:11;;;;;;;6.57;3.85;;;;;;;16.26;63.12;103284.41;20985330;28;20060;-56
2022/01/18 19:29:13;;;;;;;8.68;4.03;;;;;;;16.21;63.25;103281.91;20967574;28;20049;-55
2022/01/18 19:39:15;;;;;;;6.50;3.78;;;;;;;16.14;63.79;103292.06;20999977;28;20053;-55
2022/01/18 19:49:19;;;;;;;6.35;3.72;;;;;;;16.04;63.71;103286.22;20981708;28;20135;-55
2022/01/18 19:59:21;;;;;;;7.53;3.92;;;;;;;15.95;63.99;103281.22;20998822;28;20785;-56
2022/01/18 20:09:23;;;;;;;7.95;4.25;;;;;;;15.88;64.57;103252.84;20997511;28;20553;-56
2022/01/18 20:19:25;;;;;;;4.93;2.88;;;;;;;15.80;64.40;103240.59;20946781;28;20486;-55
2022/01/18 20:29:27;;;;;;;7.70;3.58;;;;;;;15.67;64.43;103199.09;20996349;28;20117;-56
2022/01/18 20:39:30;;;;;;;7.75;3.95;;;;;;;15.71;64.39;103211.44;20977970;28;20040;-56
2022/01/18 20:49:33;;;;;;;7.65;3.47;;;;;;;15.66;64.31;103205.41;20994099;28;20484;-56
2022/01/18 20:59:35;;;;;;;5.57;3.65;;;;;;;15.21;64.71;103119.56;20994065;28;20043;-56
2022/01/18 21:09:37;;;;;;;4.70;2.88;;;;;;;15.59;64.61;103169.03;20958798;28;20060;-56
2022/01/18 21:19:38;;;;;;;8.38;3.72;;;;;;;15.09;64.83;103085.22;20993572;28;20048;-56
2022/01/18 21:29:40;;;;;;;6.88;3.33;;;;;;;15.49;64.91;103145.25;20991543;28;20056;-54
2022/01/18 21:39:42;;;;;;;6.00;3.30;;;;;;;15.41;65.05;103122.34;20990534;28;20068;-55
2022/01/18 21:49:44;;;;;;;7.88;3.50;;;;;;;14.87;65.45;103043.19;20972065;28;20094;-53
2022/01/18 21:59:48;;;;;;;5.15;2.95;;;;;;;15.28;65.83;103124.69;20988651;28;20052;-56
2022/01/18 22:09:50;;;;;;;6.55;3.40;;;;;;;15.26;65.70;103105.09;20988405;28;20654;-54
2022/01/18 22:19:53;;;;;;;5.65;3.63;;;;;;;15.17;66.21;103079.50;20988025;28;20596;-57
2022/01/18 22:29:54;;;;;;;6.03;3.88;;;;;;;15.16;66.31;103067.03;20987964;28;20040;-55
2022/01/18 22:39:56;;;;;;;7.20;4.05;;;;;;;15.11;66.14;103043.09;20969133;28;20044;-55
2022/01/18 22:49:58;;;;;;;6.35;3.50;;;;;;;14.52;66.66;102948.09;20986811;28;20068;-55
2022/01/18 23:00:00;;;;;;;7.53;4.88;;;;;;;15.02;66.93;103030.03;20968428;28;20060;-55
2022/01/18 23:10:03;;;;;;;7.32;4.18;;;;;;;14.47;66.61;102940.25;20994989;28;20076;-56
2022/01/18 23:20:07;;;;;;;7.18;4.68;;;;;;;14.97;67.12;103032.06;21001836;28;20048;-55
2022/01/18 23:30:09;;;;;;;6.03;4.28;;;;;;;14.42;66.79;102936.88;21001413;28;20048;-55
2022/01/18 23:50:33;;;;;;;6.32;4.32;;;;;;;14.82;66.81;102983.50;20999686;28;20052;-55
